Time;durP1;ratioP1;P1;durP2;ratioP2;P2;SDS_P1;SDS_P2;PMS_P1;PMS_P2;Temp;Humidity;BMP_temperature;BMP_pressure;BME280_temperature;BME280_humidity;BME280_pressure;Samples;Min_cycle;Max_cycle;Signal;HPM_P1;HPM_P2
2022/02/11 00:07:15;;;;;;;20.65;15.60;;;4.10;99.90;;;;;;5003939;28;20040;-73
2022/02/11 00:09:40;;;;;;;21.40;16.55;;;4.10;99.90;;;;;;5012272;28;20033;-75
2022/02/11 00:12:06;;;;;;;19.95;14.98;;;4.20;99.90;;;;;;4995086;28;20034;-75
2022/02/11 00:14:40;;;;;;;21.52;15.88;;;4.20;99.90;;;;;;4992494;28;20069;-75
2022/02/11 00:17:06;;;;;;;19.17;15.90;;;4.20;99.90;;;;;;4993082;28;20473;-74
2022/02/11 00:19:31;;;;;;;20.80;15.65;;;4.20;99.90;;;;;;4998586;28;20093;-74
2022/02/11 00:21:57;;;;;;;19.63;15.40;;;4.20;99.90;;;;;;4995921;28;20113;-73
2022/02/11 00:24:22;;;;;;;18.13;14.55;;;4.30;99.90;;;;;;5001374;28;20034;-73
2022/02/11 00:27:04;;;;;;;20.13;15.48;;;4.20;99.90;;;;;;4992352;28;20396;-74
2022/02/11 00:30:18;;;;;;;20.60;15.95;;;4.20;99.90;;;;;;4992503;28;20436;-74
2022/02/11 00:32:26;;;;;;;20.80;14.93;;;4.10;99.90;;;;;;4993011;28;20054;-74
2022/02/11 00:34:59;;;;;;;19.90;14.80;;;4.20;99.90;;;;;;4990931;28;20027;-75
2022/02/11 00:37:26;;;;;;;18.48;14.82;;;4.20;99.90;;;;;;4990607;28;20026;-75
2022/02/11 01:06:10;;;;;;;19.27;15.20;;;4.00;99.90;;;;;;4997670;28;20030;-74
2022/02/11 01:08:37;;;;;;;20.38;15.82;;;4.00;99.90;;;;;;4993498;28;20033;-74
2022/02/11 01:11:02;;;;;;;20.40;15.23;;;4.00;99.90;;;;;;4992500;28;20503;-74
2022/02/11 01:13:28;;;;;;;20.98;15.48;;;4.10;99.90;;;;;;4991951;28;20110;-75
2022/02/11 01:16:02;;;;;;;20.95;15.18;;;4.00;99.90;;;;;;4994106;28;20109;-75
2022/02/11 01:18:28;;;;;;;18.70;15.35;;;4.00;99.90;;;;;;4990683;28;20023;-75
2022/02/11 01:21:00;;;;;;;20.55;16.17;;;3.90;99.90;;;;;;4991641;28;20081;-75
2022/02/11 01:28:37;;;;;;;19.27;15.57;;;3.90;99.90;;;;;;5001196;28;20030;-77
2022/02/11 01:44:59;;;;;;;20.30;16.52;;;3.90;99.90;;;;;;4993306;28;20069;-74
2022/02/11 01:47:14;;;;;;;23.15;17.60;;;3.80;99.90;;;;;;4995838;28;20040;-74
2022/02/11 01:52:43;;;;;;;19.58;15.85;;;3.80;99.90;;;;;;4996281;28;20037;-74
2022/02/11 01:59:15;;;;;;;22.65;17.23;;;3.90;99.90;;;;;;4993640;28;20042;-74
2022/02/11 02:03:48;;;;;;;23.55;17.95;;;3.80;99.90;;;;;;4996171;28;20022;-73
2022/02/11 02:08:43;;;;;;;27.55;19.30;;;3.90;99.90;;;;;;4995653;28;20033;-73
2022/02/11 02:14:39;;;;;;;22.58;17.42;;;3.90;99.90;;;;;;4986668;28;20384;-73
2022/02/11 02:22:48;;;;;;;25.45;19.17;;;3.80;99.90;;;;;;4987378;28;20049;-75
2022/02/11 02:57:55;;;;;;;30.80;20.75;;;3.60;99.90;;;;;;4986368;28;20498;-72
2022/02/11 03:00:54;;;;;;;28.90;20.00;;;3.60;99.90;;;;;;4991754;28;20492;-74
2022/02/11 03:49:37;;;;;;;20.15;16.08;;;3.40;99.90;;;;;;4993223;28;20084;-75
2022/02/11 04:56:38;;;;;;;4.20;2.08;;;1.90;99.90;;;;;;4992247;28;20074;-74
2022/02/11 05:01:48;;;;;;;1.80;1.70;;;1.90;99.90;;;;;;4992724;28;20045;-74
2022/02/11 05:04:13;;;;;;;1.73;1.63;;;1.90;99.90;;;;;;4997378;28;20022;-74
2022/02/11 05:06:40;;;;;;;2.03;1.83;;;1.90;99.90;;;;;;4997278;28;20033;-77
2022/02/11 05:09:06;;;;;;;2.28;1.80;;;1.90;99.90;;;;;;4998709;28;20148;-75
2022/02/11 05:11:31;;;;;;;2.00;1.80;;;2.00;99.90;;;;;;4998436;28;20030;-74
2022/02/11 05:13:57;;;;;;;1.70;1.60;;;1.90;99.90;;;;;;4998697;28;20022;-76
2022/02/11 05:16:22;;;;;;;1.88;1.77;;;1.90;99.90;;;;;;4997115;28;20499;-75
2022/02/11 05:18:48;;;;;;;2.03;1.80;;;1.90;99.90;;;;;;4997337;28;20054;-76
2022/02/11 05:21:13;;;;;;;1.50;1.40;;;2.00;99.90;;;;;;5010503;28;20117;-74
2022/02/11 05:23:39;;;;;;;1.45;1.35;;;1.90;99.90;;;;;;4986714;28;20023;-74
2022/02/11 05:26:04;;;;;;;1.70;1.60;;;1.90;99.90;;;;;;4998271;28;20034;-75
2022/02/11 05:28:30;;;;;;;1.63;1.52;;;2.00;99.90;;;;;;4998025;28;20030;-75
2022/02/11 05:30:55;;;;;;;1.60;1.40;;;1.90;99.90;;;;;;5006653;28;20033;-74
2022/02/11 05:33:22;;;;;;;1.38;1.27;;;1.90;99.90;;;;;;5010929;28;20072;-75
2022/02/11 05:35:48;;;;;;;1.67;1.40;;;1.90;99.90;;;;;;4985190;28;20395;-75
2022/02/11 05:38:13;;;;;;;1.50;1.40;;;1.90;99.90;;;;;;5004615;28;20455;-75
2022/02/11 05:40:39;;;;;;;2.42;1.73;;;1.90;99.90;;;;;;5002931;28;20026;-74
2022/02/11 05:43:05;;;;;;;1.60;1.42;;;1.90;99.90;;;;;;5004534;28;20041;-75
2022/02/11 05:45:31;;;;;;;1.90;1.58;;;1.90;99.90;;;;;;5004109;28;20050;-75
2022/02/11 05:47:56;;;;;;;1.48;1.30;;;1.90;99.90;;;;;;4991123;28;20039;-76
2022/02/11 05:50:22;;;;;;;1.60;1.50;;;1.90;99.90;;;;;;4978625;28;20023;-77
2022/02/11 05:52:47;;;;;;;1.50;1.40;;;1.90;99.90;;;;;;4998432;28;20476;-76
2022/02/11 05:55:13;;;;;;;1.40;1.30;;;1.90;99.90;;;;;;4985516;28;20031;-76
2022/02/11 05:57:38;;;;;;;1.73;1.35;;;2.00;99.90;;;;;;5010035;28;20033;-76
2022/02/11 06:00:05;;;;;;;1.40;1.30;;;1.90;99.90;;;;;;4995874;28;20018;-76
2022/02/11 06:02:31;;;;;;;1.20;1.10;;;1.90;99.90;;;;;;4986608;28;20500;-76
2022/02/11 06:04:56;;;;;;;1.35;1.25;;;1.90;99.90;;;;;;4998327;28;20033;-75
2022/02/11 06:07:22;;;;;;;2.50;1.50;;;2.00;99.90;;;;;;4998310;28;20054;-76
2022/02/11 06:09:47;;;;;;;1.60;1.40;;;2.00;99.90;;;;;;4990722;28;20066;-76
2022/02/11 06:12:13;;;;;;;2.17;1.98;;;2.00;99.90;;;;;;4977442;28;20038;-76
2022/02/11 06:14:38;;;;;;;2.90;2.30;;;1.90;99.90;;;;;;4987363;28;20030;-76
2022/02/11 06:17:05;;;;;;;1.60;1.40;;;1.80;99.90;;;;;;4983609;28;20022;-76
2022/02/11 06:19:30;;;;;;;2.75;2.55;;;1.80;99.90;;;;;;4982333;28;20026;-76
2022/02/11 06:21:56;;;;;;;2.25;2.05;;;1.80;99.90;;;;;;4985722;28;20073;-76
2022/02/11 06:24:22;;;;;;;3.22;2.08;;;1.80;99.90;;;;;;4977131;28;20035;-77
2022/02/11 06:26:47;;;;;;;3.03;2.80;;;1.70;99.90;;;;;;4987038;28;20042;-75
2022/02/11 06:29:13;;;;;;;3.00;1.95;;;1.70;99.90;;;;;;4990241;28;20031;-75
2022/02/11 06:31:39;;;;;;;2.97;2.00;;;1.60;99.90;;;;;;5013062;28;20109;-76
2022/02/11 06:34:06;;;;;;;2.08;1.98;;;1.60;99.90;;;;;;5003523;28;20033;-75
2022/02/11 06:36:32;;;;;;;1.98;1.88;;;1.60;99.90;;;;;;4994599;28;20022;-75
2022/02/11 06:38:58;;;;;;;3.22;1.90;;;1.60;99.90;;;;;;5006056;28;20037;-75
2022/02/11 06:41:23;;;;;;;2.40;1.65;;;1.50;99.90;;;;;;4981760;28;20539;-75
2022/02/11 06:43:49;;;;;;;1.98;1.75;;;1.60;99.90;;;;;;5006374;28;20048;-76
2022/02/11 06:46:15;;;;;;;2.55;1.80;;;1.50;99.90;;;;;;5001330;28;20033;-76
2022/02/11 06:48:41;;;;;;;2.53;2.10;;;1.50;99.90;;;;;;4998439;28;20022;-75
2022/02/11 06:51:07;;;;;;;2.40;2.20;;;1.60;99.90;;;;;;4994410;28;20384;-76
2022/02/11 06:53:33;;;;;;;2.80;2.60;;;1.70;99.90;;;;;;5006067;28;20033;-75
2022/02/11 06:55:58;;;;;;;5.88;5.28;;;1.70;99.90;;;;;;4981764;28;20032;-74
2022/02/11 06:58:24;;;;;;;3.10;2.80;;;1.60;99.90;;;;;;4993552;28;20023;-76
2022/02/11 07:00:50;;;;;;;4.38;3.03;;;1.60;99.90;;;;;;4991908;28;20035;-75
2022/02/11 07:03:17;;;;;;;4.88;3.20;;;1.60;99.90;;;;;;4985777;28;20634;-75
2022/02/11 07:05:43;;;;;;;3.45;3.13;;;1.60;99.90;;;;;;4980742;28;20029;-75
2022/02/11 07:08:09;;;;;;;3.45;3.15;;;1.60;99.90;;;;;;4993617;28;20370;-75
2022/02/11 07:10:34;;;;;;;3.35;3.05;;;1.60;99.90;;;;;;5006438;28;20032;-75
2022/02/11 07:13:00;;;;;;;3.78;3.47;;;1.60;99.90;;;;;;4999887;28;20645;-74
2022/02/11 07:15:26;;;;;;;4.20;3.58;;;1.60;99.90;;;;;;4987437;28;20027;-75
2022/02/11 07:17:52;;;;;;;4.20;3.80;;;1.60;99.90;;;;;;4987492;28;20031;-76
2022/02/11 07:20:18;;;;;;;5.20;4.13;;;1.60;99.90;;;;;;4979417;28;20033;-76
2022/02/11 07:22:43;;;;;;;5.30;4.78;;;1.70;99.90;;;;;;4980967;28;20026;-76
2022/02/11 07:25:12;;;;;;;4.70;4.22;;;1.70;99.90;;;;;;4986953;28;20089;-75
2022/02/11 07:27:37;;;;;;;5.05;4.55;;;1.70;99.90;;;;;;4987029;28;20030;-74
2022/02/11 07:30:04;;;;;;;6.38;5.78;;;1.60;99.90;;;;;;4981101;28;20030;-74
2022/02/11 07:32:30;;;;;;;6.10;5.50;;;1.60;99.90;;;;;;4981508;28;20035;-74
2022/02/11 07:35:00;;;;;;;6.63;5.47;;;1.60;99.90;;;;;;5002370;28;20033;-74
2022/02/11 07:37:26;;;;;;;7.13;5.40;;;1.50;99.90;;;;;;4993316;28;20507;-74
2022/02/11 07:39:53;;;;;;;5.68;5.07;;;1.60;99.90;;;;;;5000411;28;20056;-74
2022/02/11 07:42:20;;;;;;;6.97;6.07;;;1.50;99.90;;;;;;4999318;28;20030;-75
2022/02/11 07:44:45;;;;;;;5.50;4.97;;;1.60;99.90;;;;;;5002755;28;20030;-75
2022/02/11 07:47:11;;;;;;;5.63;4.93;;;1.50;99.90;;;;;;5000964;28;20985;-75
2022/02/11 07:49:37;;;;;;;7.13;5.13;;;1.50;99.90;;;;;;5001084;28;20031;-74
2022/02/11 07:52:04;;;;;;;7.93;5.07;;;1.60;99.90;;;;;;5001994;28;20022;-75
2022/02/11 07:54:30;;;;;;;6.82;4.70;;;1.60;99.90;;;;;;5003637;28;20109;-74
2022/02/11 07:56:56;;;;;;;7.38;5.45;;;1.70;99.90;;;;;;5002297;28;20104;-75
2022/02/11 07:59:22;;;;;;;6.13;5.53;;;1.70;99.90;;;;;;5001306;28;20121;-74
2022/02/11 08:01:47;;;;;;;7.80;5.03;;;1.80;99.90;;;;;;5000505;28;20471;-74
2022/02/11 08:04:13;;;;;;;8.55;4.88;;;1.80;99.90;;;;;;5001864;28;20036;-74
2022/02/11 08:06:38;;;;;;;5.50;4.80;;;1.90;99.90;;;;;;5001736;28;20029;-75
2022/02/11 08:09:04;;;;;;;5.60;5.10;;;1.90;99.90;;;;;;5000816;28;20117;-75
2022/02/11 08:11:30;;;;;;;7.25;5.80;;;1.90;99.90;;;;;;4999733;28;20042;-75
2022/02/11 08:13:55;;;;;;;7.32;5.38;;;1.70;99.90;;;;;;4998611;28;20030;-75
2022/02/11 08:16:21;;;;;;;7.80;5.85;;;1.60;99.90;;;;;;5000633;28;20030;-75
2022/02/11 08:18:46;;;;;;;54.08;41.88;;;1.60;99.90;;;;;;4997996;28;20568;-76
2022/02/11 08:21:12;;;;;;;11.98;10.82;;;1.80;99.90;;;;;;5007325;28;20117;-77
2022/02/11 08:23:38;;;;;;;8.23;7.53;;;2.00;99.90;;;;;;4999066;28;20093;-75
2022/02/11 08:26:04;;;;;;;9.85;8.63;;;2.00;99.90;;;;;;4999476;28;20034;-74
2022/02/11 08:28:31;;;;;;;14.38;13.10;;;2.10;99.90;;;;;;5002904;28;20054;-75
2022/02/11 08:30:57;;;;;;;8.73;7.88;;;2.30;99.90;;;;;;5002285;28;20018;-75
2022/02/11 08:33:23;;;;;;;8.20;7.38;;;2.30;99.90;;;;;;5003095;28;20030;-75
2022/02/11 08:35:54;;;;;;;19.55;17.98;;;2.30;99.90;;;;;;4999538;28;20026;-75
2022/02/11 08:38:21;;;;;;;7.28;6.55;;;2.30;99.90;;;;;;5001428;28;20022;-75
2022/02/11 08:40:47;;;;;;;6.43;5.50;;;2.30;99.90;;;;;;5001178;28;20050;-75
2022/02/11 08:43:14;;;;;;;7.80;6.97;;;2.20;99.90;;;;;;5003180;28;20019;-75
2022/02/11 08:45:40;;;;;;;7.95;7.15;;;2.20;99.90;;;;;;4995940;28;20076;-75
2022/02/11 08:48:08;;;;;;;7.50;6.03;;;2.20;99.90;;;;;;5004660;28;20414;-75
2022/02/11 08:50:34;;;;;;;8.85;6.90;;;2.20;99.90;;;;;;5001292;28;20104;-75
2022/02/11 08:53:00;;;;;;;8.52;6.85;;;2.40;99.90;;;;;;5000709;28;20062;-75
2022/02/11 08:55:25;;;;;;;7.40;6.53;;;2.50;99.90;;;;;;4998471;28;20030;-77
2022/02/11 08:57:53;;;;;;;8.18;6.55;;;2.50;99.90;;;;;;4992277;28;20516;-76
2022/02/11 09:00:19;;;;;;;7.03;6.32;;;2.60;99.90;;;;;;4992144;28;20384;-76
2022/02/11 09:02:45;;;;;;;10.55;7.30;;;2.90;99.90;;;;;;4992519;28;20022;-76
2022/02/11 09:05:11;;;;;;;10.55;7.50;;;3.10;99.90;;;;;;4997155;28;20057;-76
2022/02/11 09:07:36;;;;;;;12.63;7.43;;;3.10;99.90;;;;;;4995282;28;20089;-77
2022/02/11 09:10:05;;;;;;;13.73;7.13;;;3.00;99.90;;;;;;4992142;28;20030;-76
2022/02/11 09:12:31;;;;;;;8.85;7.15;;;2.90;99.90;;;;;;5004207;28;20022;-75
2022/02/11 09:14:56;;;;;;;9.27;7.10;;;2.80;99.90;;;;;;4996051;28;20034;-76
2022/02/11 09:17:22;;;;;;;13.05;8.68;;;2.90;99.90;;;;;;4991011;28;20452;-76
2022/02/11 09:19:50;;;;;;;9.70;7.03;;;2.70;99.90;;;;;;4995800;28;20489;-75
2022/02/11 09:22:16;;;;;;;9.38;6.68;;;2.70;99.90;;;;;;4991638;28;20029;-75
2022/02/11 09:24:42;;;;;;;15.23;6.35;;;2.60;99.90;;;;;;4993905;28;20022;-75
2022/02/11 09:27:07;;;;;;;11.25;7.13;;;2.70;99.90;;;;;;4992274;28;20540;-75
2022/02/11 09:29:33;;;;;;;11.68;6.95;;;2.60;99.90;;;;;;4998021;28;20034;-77
2022/02/11 09:31:58;;;;;;;11.60;6.78;;;2.60;99.90;;;;;;4993434;28;20022;-75
2022/02/11 09:34:24;;;;;;;12.43;7.07;;;2.60;99.90;;;;;;4998097;28;20041;-74
2022/02/11 09:36:50;;;;;;;11.90;7.28;;;2.70;99.90;;;;;;5000863;28;20559;-74
2022/02/11 09:39:16;;;;;;;8.82;6.65;;;2.70;99.90;;;;;;5000099;28;20022;-75
2022/02/11 09:41:42;;;;;;;7.60;6.15;;;2.70;99.90;;;;;;4996944;28;20040;-75
2022/02/11 09:44:07;;;;;;;11.77;7.10;;;3.10;99.90;;;;;;4998607;28;20081;-75
2022/02/11 09:46:37;;;;;;;7.70;6.50;;;3.10;99.90;;;;;;4997301;28;20030;-74
2022/02/11 09:49:02;;;;;;;11.65;7.38;;;3.00;99.90;;;;;;5000757;28;20026;-74
2022/02/11 09:51:28;;;;;;;8.27;7.22;;;3.20;99.90;;;;;;5004181;28;20032;-74
2022/02/11 09:53:54;;;;;;;10.23;6.97;;;3.30;99.90;;;;;;5003158;28;20104;-74
2022/02/11 09:56:19;;;;;;;10.07;6.65;;;3.00;99.90;;;;;;5004881;28;20032;-74
2022/02/11 09:58:52;;;;;;;10.05;6.70;;;3.00;99.90;;;;;;5003949;28;20040;-74
2022/02/11 10:01:19;;;;;;;7.20;6.28;;;3.10;99.90;;;;;;5004668;28;20104;-74
2022/02/11 10:03:45;;;;;;;9.55;6.90;;;3.10;99.90;;;;;;5001438;28;20125;-74
2022/02/11 10:06:11;;;;;;;8.98;6.15;;;3.20;99.90;;;;;;5002760;28;20018;-75
2022/02/11 10:08:38;;;;;;;12.40;6.57;;;3.10;99.90;;;;;;5005032;28;20026;-74
2022/02/11 10:11:06;;;;;;;7.75;5.85;;;3.10;99.90;;;;;;4983205;28;20023;-75
2022/02/11 10:13:36;;;;;;;8.15;5.57;;;3.20;99.90;;;;;;4988822;28;20432;-74
2022/02/11 10:16:09;;;;;;;10.20;6.57;;;3.10;99.90;;;;;;4987657;28;20025;-74
2022/02/11 10:18:39;;;;;;;11.50;7.13;;;3.10;99.90;;;;;;4989037;28;20020;-75
2022/02/11 10:21:07;;;;;;;11.30;7.03;;;3.20;99.90;;;;;;4987809;28;20045;-74
2022/02/11 10:23:41;;;;;;;11.48;7.28;;;3.20;99.90;;;;;;4993687;28;20030;-74
2022/02/11 10:26:16;;;;;;;10.52;6.78;;;3.10;99.90;;;;;;4981885;28;20461;-75
2022/02/11 10:28:45;;;;;;;13.32;6.80;;;3.10;99.90;;;;;;4985634;28;20603;-75
2022/02/11 10:31:19;;;;;;;12.68;6.80;;;3.20;99.90;;;;;;4991770;28;20022;-76
2022/02/11 10:34:11;;;;;;;11.32;6.20;;;3.20;99.90;;;;;;4984238;28;20022;-75
2022/02/11 10:36:43;;;;;;;9.80;6.15;;;3.30;99.90;;;;;;4989164;28;20387;-76
2022/02/11 10:39:16;;;;;;;10.73;6.55;;;3.40;99.90;;;;;;4983953;28;20018;-75
2022/02/11 10:41:45;;;;;;;13.85;7.22;;;3.40;99.90;;;;;;4983339;28;20481;-75
2022/02/11 10:44:14;;;;;;;14.60;5.95;;;3.40;99.90;;;;;;5007957;28;20027;-76
2022/02/11 10:46:48;;;;;;;11.93;6.32;;;3.50;99.90;;;;;;4984379;28;20034;-75
2022/02/11 10:49:16;;;;;;;9.95;6.20;;;3.40;99.90;;;;;;4991736;28;20417;-76
2022/02/11 10:51:48;;;;;;;8.52;5.72;;;3.40;99.90;;;;;;4994305;28;20045;-76
2022/02/11 10:54:28;;;;;;;8.40;5.32;;;3.50;99.90;;;;;;4981652;28;20428;-75
2022/02/11 10:56:57;;;;;;;10.13;5.55;;;3.60;99.90;;;;;;4980041;28;20150;-76
2022/02/11 10:59:44;;;;;;;9.98;6.28;;;3.60;99.90;;;;;;4992145;28;20023;-76
2022/02/11 11:02:18;;;;;;;8.48;4.90;;;3.50;99.90;;;;;;5007934;28;20503;-76
2022/02/11 11:04:48;;;;;;;9.18;5.25;;;3.60;99.90;;;;;;4994256;28;20481;-76
2022/02/11 11:07:21;;;;;;;7.30;5.18;;;3.50;99.90;;;;;;4979203;28;20395;-75
2022/02/11 11:09:48;;;;;;;7.53;4.35;;;3.60;99.90;;;;;;4988551;28;20026;-74
2022/02/11 11:12:18;;;;;;;6.90;3.80;;;3.60;99.90;;;;;;4992321;28;20022;-74
2022/02/11 11:14:45;;;;;;;7.55;4.57;;;3.60;99.90;;;;;;5002059;28;20019;-75
2022/02/11 11:17:14;;;;;;;8.93;4.18;;;3.60;99.90;;;;;;4999261;28;20025;-74
2022/02/11 11:19:40;;;;;;;7.40;4.30;;;3.50;99.90;;;;;;4994328;28;20022;-75
2022/02/11 11:22:16;;;;;;;6.57;4.35;;;3.60;99.90;;;;;;4993999;28;20542;-74
2022/02/11 11:24:52;;;;;;;9.63;5.13;;;3.60;99.90;;;;;;4994122;28;20037;-74
2022/02/11 11:27:36;;;;;;;7.18;3.92;;;3.50;99.90;;;;;;4986155;28;20046;-73
2022/02/11 11:30:23;;;;;;;8.00;4.53;;;3.60;99.90;;;;;;4992121;28;20026;-77
2022/02/11 11:33:07;;;;;;;7.75;4.32;;;3.60;99.90;;;;;;4994360;28;20412;-77
2022/02/11 11:36:03;;;;;;;8.40;4.25;;;3.60;99.90;;;;;;4993131;28;20476;-74
2022/02/11 11:38:44;;;;;;;8.25;4.15;;;3.70;99.90;;;;;;4994000;28;20491;-76
2022/02/11 11:41:10;;;;;;;6.70;4.25;;;3.60;99.90;;;;;;4998124;28;20421;-73
2022/02/11 11:43:40;;;;;;;8.85;4.32;;;3.70;99.90;;;;;;4998358;28;20029;-73
2022/02/11 11:46:17;;;;;;;7.05;4.30;;;3.80;99.90;;;;;;4994251;28;20014;-73
2022/02/11 11:49:06;;;;;;;8.20;3.88;;;3.90;99.90;;;;;;4995444;28;20424;-73
2022/02/11 11:51:35;;;;;;;6.45;3.63;;;4.00;99.90;;;;;;4997811;28;20730;-73
2022/02/11 11:54:16;;;;;;;9.68;4.35;;;4.10;99.90;;;;;;4995243;28;20030;-75
2022/02/11 11:56:43;;;;;;;6.65;3.60;;;4.30;99.90;;;;;;4991840;28;20057;-73
2022/02/11 11:59:19;;;;;;;5.75;3.22;;;4.40;99.90;;;;;;4992952;28;20026;-74
2022/02/11 12:01:52;;;;;;;6.38;4.07;;;4.20;99.90;;;;;;5000377;28;20118;-73
2022/02/11 12:04:23;;;;;;;5.68;3.58;;;4.20;99.90;;;;;;4985262;28;20036;-74
2022/02/11 12:06:53;;;;;;;7.57;3.67;;;4.10;99.90;;;;;;4998456;28;20033;-73
2022/02/11 12:09:20;;;;;;;7.30;3.45;;;4.10;99.90;;;;;;4991850;28;20580;-74
2022/02/11 12:11:47;;;;;;;7.15;3.42;;;4.10;99.90;;;;;;4992122;28;20097;-74
2022/02/11 12:14:13;;;;;;;8.88;3.90;;;4.00;99.90;;;;;;4992774;28;20030;-74
2022/02/11 12:16:39;;;;;;;5.95;3.40;;;4.00;99.90;;;;;;4996890;28;20034;-73
2022/02/11 12:19:04;;;;;;;6.32;3.28;;;4.00;99.90;;;;;;4994715;28;20026;-73
2022/02/11 12:21:30;;;;;;;5.68;3.40;;;4.10;99.90;;;;;;5000016;28;20966;-74
2022/02/11 12:29:28;;;;;;;7.22;3.60;;;4.00;99.90;;;;;;4994851;28;20407;-73
2022/02/11 12:31:55;;;;;;;8.63;3.80;;;3.70;99.90;;;;;;5003950;28;20026;-74
2022/02/11 12:34:21;;;;;;;6.30;3.55;;;3.80;99.90;;;;;;5002784;28;20030;-73
2022/02/11 12:36:48;;;;;;;5.03;3.00;;;3.90;99.90;;;;;;4999012;28;20056;-74
2022/02/11 12:39:22;;;;;;;6.78;3.35;;;3.90;99.90;;;;;;4993859;28;20114;-73
2022/02/11 12:41:50;;;;;;;7.07;3.50;;;4.10;99.90;;;;;;4992393;28;20033;-74
2022/02/11 12:44:27;;;;;;;7.10;4.15;;;4.40;99.90;;;;;;4994266;28;20109;-74
2022/02/11 12:46:54;;;;;;;5.68;2.70;;;4.30;99.90;;;;;;4992332;28;20026;-75
2022/02/11 12:49:20;;;;;;;6.20;2.80;;;4.10;99.90;;;;;;5000101;28;20101;-74
2022/02/11 12:51:56;;;;;;;6.57;2.83;;;3.90;99.90;;;;;;4992883;28;20690;-74
2022/02/11 12:54:23;;;;;;;5.18;3.08;;;3.70;99.90;;;;;;5000685;28;20511;-74
2022/02/11 12:57:00;;;;;;;5.93;3.65;;;3.10;99.90;;;;;;4996553;28;20500;-74
2022/02/11 12:59:25;;;;;;;5.72;4.45;;;2.70;99.90;;;;;;4996954;28;20560;-74
2022/02/11 13:01:51;;;;;;;8.25;4.57;;;2.30;99.90;;;;;;4992128;28;20548;-74
2022/02/11 13:04:21;;;;;;;7.68;4.47;;;2.50;99.90;;;;;;4996313;28;20031;-74
2022/02/11 13:06:47;;;;;;;8.75;5.03;;;2.70;99.90;;;;;;4991006;28;20038;-74
2022/02/11 13:09:13;;;;;;;7.82;4.90;;;2.80;99.90;;;;;;4996439;28;20029;-74
2022/02/11 13:11:41;;;;;;;9.10;4.97;;;3.00;99.90;;;;;;4993857;28;20377;-74
2022/02/11 13:14:08;;;;;;;8.60;5.82;;;3.20;99.90;;;;;;5000193;28;20143;-74
2022/02/11 13:16:35;;;;;;;7.88;5.38;;;3.30;99.90;;;;;;5007523;28;20448;-74
2022/02/11 13:19:10;;;;;;;9.27;5.28;;;3.40;99.90;;;;;;4995018;28;20113;-73
2022/02/11 13:21:36;;;;;;;;;;;3.50;99.90;;;;;;5007707;28;20030;-74
2022/02/11 13:24:03;;;;;;;7.97;4.15;;;3.50;99.90;;;;;;5002548;28;19909;-73
2022/02/11 13:26:29;;;;;;;6.40;4.22;;;3.60;99.90;;;;;;5003783;28;20129;-73
2022/02/11 13:28:56;;;;;;;7.97;4.20;;;3.70;99.90;;;;;;4999580;28;20117;-74
2022/02/11 13:31:22;;;;;;;7.78;4.50;;;3.90;99.90;;;;;;5005122;28;20045;-74
2022/02/11 13:34:02;;;;;;;8.55;3.80;;;4.00;99.90;;;;;;5003049;28;20041;-74
2022/02/11 13:36:28;;;;;;;8.23;3.70;;;4.20;99.90;;;;;;5003441;28;20033;-74
2022/02/11 13:38:54;;;;;;;8.70;3.95;;;4.20;99.90;;;;;;5001358;28;20022;-74
2022/02/11 13:41:29;;;;;;;6.85;3.83;;;4.40;99.90;;;;;;5003085;28;20057;-74
2022/02/11 13:43:56;;;;;;;7.25;4.00;;;4.30;99.90;;;;;;5003808;28;20025;-74
2022/02/11 13:46:26;;;;;;;6.75;2.97;;;4.30;99.90;;;;;;4998791;28;20639;-74
2022/02/11 13:48:57;;;;;;;10.77;4.30;;;4.40;99.90;;;;;;5003825;28;20392;-74
2022/02/11 13:51:23;;;;;;;10.68;3.40;;;4.60;99.90;;;;;;5001984;28;20018;-74
2022/02/11 13:53:54;;;;;;;6.40;3.10;;;4.60;99.90;;;;;;5002313;28;20388;-73
2022/02/11 13:56:36;;;;;;;6.75;3.17;;;4.40;99.90;;;;;;5003843;28;20030;-73
2022/02/11 13:59:26;;;;;;;5.60;2.97;;;4.40;99.90;;;;;;4995419;28;20100;-74
2022/02/11 14:02:01;;;;;;;6.25;2.72;;;4.20;99.90;;;;;;5003241;28;20075;-74
2022/02/11 14:04:28;;;;;;;5.80;3.00;;;4.30;99.90;;;;;;4991385;28;20018;-74
2022/02/11 14:06:56;;;;;;;4.00;2.30;;;4.40;99.90;;;;;;5003070;28;20112;-75
2022/02/11 14:09:35;;;;;;;4.65;2.38;;;4.40;99.90;;;;;;4995302;28;20081;-74
2022/02/11 14:12:02;;;;;;;5.43;2.63;;;4.30;99.90;;;;;;5002893;28;20037;-74
2022/02/11 14:14:29;;;;;;;7.43;3.03;;;4.40;99.90;;;;;;4997653;28;20030;-74
2022/02/11 14:16:58;;;;;;;6.55;2.13;;;4.50;99.90;;;;;;4994929;28;20033;-74
2022/02/11 14:19:25;;;;;;;7.25;2.60;;;4.70;99.90;;;;;;4994368;28;20022;-74
2022/02/11 14:21:51;;;;;;;4.80;2.50;;;4.80;99.90;;;;;;4979925;28;20047;-73
2022/02/11 14:24:17;;;;;;;4.75;2.35;;;4.90;99.90;;;;;;4993165;28;20037;-74
2022/02/11 14:26:43;;;;;;;6.95;2.53;;;4.90;99.90;;;;;;4982005;28;20400;-74
2022/02/11 14:29:08;;;;;;;5.95;2.40;;;4.50;99.90;;;;;;4982004;28;20578;-74
2022/02/11 14:31:34;;;;;;;6.93;2.80;;;4.50;99.90;;;;;;4987764;28;20035;-74
2022/02/11 14:34:00;;;;;;;7.20;2.80;;;4.60;99.90;;;;;;4988524;28;20117;-73
2022/02/11 14:36:25;;;;;;;9.02;2.50;;;4.60;99.90;;;;;;4981184;28;20030;-73
2022/02/11 14:38:51;;;;;;;13.50;2.97;;;4.50;99.90;;;;;;4994672;28;20032;-73
2022/02/11 14:44:01;;;;;;;9.18;2.85;;;4.60;99.90;;;;;;4991769;28;20038;-73
2022/02/11 14:46:26;;;;;;;7.47;2.83;;;4.60;99.90;;;;;;4984552;28;20026;-73
2022/02/11 14:48:53;;;;;;;5.32;2.42;;;4.50;99.90;;;;;;4993362;28;20388;-74
2022/02/11 14:51:19;;;;;;;8.23;3.20;;;4.30;99.90;;;;;;4993251;28;20022;-74
2022/02/11 14:53:45;;;;;;;9.75;3.03;;;4.60;99.90;;;;;;4981404;28;20030;-74
2022/02/11 14:56:10;;;;;;;4.90;2.50;;;4.70;99.90;;;;;;4985752;28;20034;-73
2022/02/11 14:58:36;;;;;;;8.45;2.95;;;4.60;99.90;;;;;;4988089;28;20045;-74
2022/02/11 15:01:03;;;;;;;5.97;3.15;;;4.70;99.90;;;;;;4983360;28;20018;-75
2022/02/11 15:03:31;;;;;;;5.63;2.72;;;4.60;99.90;;;;;;4981244;28;20097;-75
2022/02/11 15:05:56;;;;;;;9.73;2.90;;;4.90;99.90;;;;;;4985694;28;20019;-75
2022/02/11 15:08:22;;;;;;;6.38;2.63;;;4.90;99.90;;;;;;4987794;28;20381;-75
2022/02/11 15:10:47;;;;;;;11.75;3.55;;;4.80;99.90;;;;;;4983355;28;20034;-75
2022/02/11 15:13:13;;;;;;;6.60;2.53;;;4.90;99.90;;;;;;4981217;28;20191;-75
2022/02/11 15:15:40;;;;;;;7.55;2.80;;;4.90;99.90;;;;;;4985641;28;20452;-74
2022/02/11 15:18:07;;;;;;;8.35;3.17;;;4.80;99.90;;;;;;4992222;28;20022;-74
2022/02/11 15:20:34;;;;;;;6.10;2.60;;;4.80;99.90;;;;;;5004212;28;20057;-74
2022/02/11 15:23:00;;;;;;;6.63;2.80;;;4.60;99.90;;;;;;5004371;28;20037;-74
2022/02/11 15:25:25;;;;;;;8.75;2.53;;;4.50;99.90;;;;;;4983578;28;20068;-74
2022/02/11 15:27:51;;;;;;;5.90;2.25;;;4.50;99.90;;;;;;4982294;28;20033;-74
2022/02/11 15:30:16;;;;;;;6.95;2.83;;;4.40;99.90;;;;;;4994993;28;20081;-76
2022/02/11 15:32:42;;;;;;;6.25;2.72;;;4.40;99.90;;;;;;4987506;28;20026;-76
2022/02/11 15:35:09;;;;;;;5.28;2.75;;;4.30;99.90;;;;;;4981833;28;20034;-75
2022/02/11 15:37:35;;;;;;;5.85;2.90;;;4.30;99.90;;;;;;4980647;28;20046;-75
2022/02/11 15:40:00;;;;;;;7.15;2.83;;;4.30;99.90;;;;;;4983770;28;20394;-75
2022/02/11 15:42:26;;;;;;;7.28;3.85;;;4.30;99.90;;;;;;4985858;28;20118;-75
2022/02/11 15:44:51;;;;;;;11.07;6.07;;;4.30;99.90;;;;;;4982652;28;20097;-75
2022/02/11 15:47:17;;;;;;;5.35;2.40;;;4.20;99.90;;;;;;4980375;28;20035;-75
2022/02/11 15:49:43;;;;;;;16.27;8.73;;;4.30;99.90;;;;;;4993350;28;20031;-77
2022/02/11 15:52:09;;;;;;;10.52;4.60;;;4.20;99.90;;;;;;4990781;28;20030;-74
2022/02/11 15:54:35;;;;;;;5.07;2.60;;;4.20;99.90;;;;;;4984611;28;20036;-74
2022/02/11 15:57:00;;;;;;;7.03;2.35;;;4.20;99.90;;;;;;5002642;28;20022;-74
2022/02/11 15:59:26;;;;;;;6.88;3.10;;;4.20;99.90;;;;;;4991392;28;20744;-74
2022/02/11 16:01:51;;;;;;;10.23;3.13;;;4.20;99.90;;;;;;4987612;28;20034;-74
2022/02/11 16:04:17;;;;;;;6.00;2.83;;;4.20;99.90;;;;;;4991566;28;20022;-73
2022/02/11 16:06:43;;;;;;;8.10;2.70;;;4.20;99.90;;;;;;4995950;28;20113;-74
2022/02/11 16:09:09;;;;;;;9.75;2.80;;;4.20;99.90;;;;;;4984011;28;20428;-74
2022/02/11 16:11:35;;;;;;;8.80;3.10;;;4.20;99.90;;;;;;4986997;28;20101;-75
2022/02/11 16:14:00;;;;;;;6.70;2.30;;;4.20;99.90;;;;;;4981318;28;20085;-76
2022/02/11 16:16:26;;;;;;;6.43;2.78;;;4.20;99.90;;;;;;4978546;28;20027;-75
2022/02/11 16:18:52;;;;;;;8.77;2.53;;;4.10;99.90;;;;;;4991212;28;20105;-75
2022/02/11 16:21:17;;;;;;;10.35;3.13;;;4.10;99.90;;;;;;4991475;28;20527;-75
2022/02/11 16:23:43;;;;;;;8.38;2.83;;;4.20;99.90;;;;;;4989783;28;20109;-75
2022/02/11 16:26:10;;;;;;;10.18;3.72;;;4.10;99.90;;;;;;4987014;28;20023;-75
2022/02/11 16:28:37;;;;;;;7.72;3.08;;;4.20;99.90;;;;;;4991163;28;20484;-75
2022/02/11 16:31:21;;;;;;;7.45;3.17;;;4.00;99.90;;;;;;4991202;28;20030;-76
2022/02/11 16:33:48;;;;;;;9.45;3.03;;;4.00;99.90;;;;;;4992798;28;20030;-76
2022/02/11 16:36:14;;;;;;;6.32;2.80;;;4.30;99.90;;;;;;4991214;28;20026;-75
2022/02/11 16:38:41;;;;;;;9.02;3.13;;;4.00;99.90;;;;;;4992254;28;20030;-75
2022/02/11 16:41:07;;;;;;;7.40;3.47;;;4.20;99.90;;;;;;4992213;28;20076;-78
2022/02/11 16:43:33;;;;;;;11.10;3.67;;;4.00;99.90;;;;;;4991547;28;20025;-75